• Join FlightAware (Why Join?)
  • Login
  • US Flag 
08:45AM EDT


 

Airport Tracker/Info


-or-


 

Live Flight TrackerFlight Track Log ✈ AVN10 ✈ 17-Nov-2013 ✈ NVVV / VLI - YSSY / SYD

Flight Track Log - Related Links

Times and Time Zones

All times are in EST time to prevent confusion due to time zone crossing. See the AVN10 flight status page for this flight to view local times or setup timezone preferences in your user account.

Time Position Orientation Groundspeed Altitude Reporting Facility
EST Latitude Longitude Course Direction KTS MPH feet Rate Location/Type
02:55PM -18.2220 168.0531 206° Southwest  Level FlightAware Approximate
02:56PM -18.3264 167.9996 206° Southwest  Level FlightAware Approximate
02:57PM -18.4147 167.9200 204° Southwest  Level Estimated
02:58PM -18.5210 167.8706 204° Southwest  Level FlightAware Approximate
02:59PM -18.6273 167.8211 204° Southwest  Level FlightAware Approximate
03:00PM -18.7336 167.7716 204° Southwest  Level FlightAware Approximate
03:01PM -18.8399 167.7221 204° Southwest  Level FlightAware Approximate
03:02PM -18.9462 167.6724 204° Southwest  Level FlightAware Approximate
03:03PM -19.0524 167.6227 204° Southwest  Level FlightAware Approximate
03:04PM -19.1587 167.5730 204° Southwest  Level FlightAware Approximate
03:05PM -19.2649 167.5231 204° Southwest  Level FlightAware Approximate
03:06PM -19.3711 167.4732 204° Southwest  Level FlightAware Approximate
03:07PM -19.4773 167.4233 204° Southwest  Level FlightAware Approximate
03:08PM -19.5835 167.3733 204° Southwest  Level FlightAware Approximate
03:09PM -19.6897 167.3232 204° Southwest  Level FlightAware Approximate
03:10PM -19.7959 167.2730 204° Southwest  Level FlightAware Approximate
03:11PM -19.9020 167.2228 204° Southwest  Level FlightAware Approximate
03:12PM -20.0082 167.1725 204° Southwest  Level FlightAware Approximate
03:13PM -20.1143 167.1221 204° Southwest  Level FlightAware Approximate
03:14PM -20.2204 167.0717 204° Southwest  Level FlightAware Approximate
03:15PM -20.3265 167.0212 204° Southwest  Level FlightAware Approximate
03:16PM -20.4326 166.9707 204° Southwest  Level FlightAware Approximate
03:17PM -20.5386 166.9200 204° Southwest  Level FlightAware Approximate
03:18PM -20.6447 166.8694 204° Southwest  Level FlightAware Approximate
03:19PM -20.7507 166.8186 204° Southwest  Level FlightAware Approximate
03:19PM -20.5530 166.9020 224° Southwest 439 505 36,000  Level FlightAware
03:20PM -20.8355 166.7337 224° Southwest  Level Estimated
03:20PM -20.6530 166.8550 204° Southwest 439 505 36,000  Level FlightAware
03:20PM -20.7140 166.8260 204° Southwest 440 506 36,000  Level FlightAware
03:21PM -20.7740 166.7980 204° Southwest 439 505 36,000  Level FlightAware
03:22PM -20.8880 166.7440 204° Southwest 438 504 36,000  Level FlightAware
03:23PM -20.9930 166.6940 204° Southwest 439 505 36,000  Level FlightAware
03:24PM -21.0690 166.6580 204° Southwest 440 506 36,000  Level FlightAware
03:24PM -21.1280 166.6300 204° Southwest 440 506 36,000  Level FlightAware
03:25PM -21.1840 166.6040 203° Southwest 440 506 36,000  Level FlightAware
03:26PM -21.3000 166.5490 204° Southwest 438 504 36,000  Level FlightAware
03:26PM -21.3620 166.5190 204° Southwest 436 502 36,000  Level FlightAware
03:27PM -21.4750 166.4650 204° Southwest 436 502 36,000  Level FlightAware
03:28PM -21.5790 166.4160 204° Southwest 434 499 36,000  Level FlightAware
03:29PM -21.6330 166.3900 204° Southwest 432 497 36,000  Level FlightAware
03:30PM -21.7390 166.3390 204° Southwest 429 494 36,000  Level FlightAware
03:30PM -21.7950 166.3130 203° Southwest 427 491 36,000  Level FlightAware
03:31PM -21.8920 166.2660 204° Southwest 426 490 36,000  Level FlightAware
03:32PM -21.9980 166.2120 205° Southwest 420 483 36,000  Level FlightAware
03:33PM -22.0400 166.1760 218° Southwest 406 467 36,000  Level FlightAware
03:33PM -22.0910 166.1220 224° Southwest 405 466 36,000  Level FlightAware
03:34PM -22.1410 166.0700 224° Southwest 405 466 36,000  Level FlightAware
03:35PM -22.2060 166.0020 224° Southwest 405 466 36,000  Level FlightAware
03:35PM -22.2540 165.9510 225° Southwest 406 467 36,000  Level FlightAware
03:36PM -22.3330 165.8680 224° Southwest 407 468 36,000  Level FlightAware
03:37PM -22.3760 165.8240 223° Southwest 405 466 36,000  Level FlightAware
03:38PM -22.4650 165.7300 224° Southwest 403 464 36,000  Level FlightAware
03:39PM -22.5390 165.6510 225° Southwest 401 461 36,000  Level FlightAware
03:40PM -22.6170 165.5690 224° Southwest 388 447 36,000  Level FlightAware
03:41PM -22.6910 165.4900 225° Southwest 386 444 36,000  Level FlightAware
03:41PM -22.7360 165.4420 225° Southwest 388 447 36,000  Level FlightAware
03:42PM -22.7780 165.3980 224° Southwest 389 448 36,000  Level FlightAware
03:42PM -22.8240 165.3490 224° Southwest 388 447 36,000  Level FlightAware
03:43PM -22.8820 165.2880 224° Southwest 398 458 36,000  Level FlightAware
03:44PM -22.9580 165.2070 224° Southwest 407 468 36,000  Level FlightAware
03:45PM -23.0010 165.1610 225° Southwest 406 467 36,000  Level FlightAware
03:46PM -23.0720 165.0850 225° Southwest 407 468 36,000  Level FlightAware
03:46PM -23.1220 165.0310 225° Southwest 408 470 36,000  Level FlightAware
03:47PM -23.1600 164.9900 225° Southwest 408 470 36,000  Level FlightAware
03:47PM -23.2130 164.9340 224° Southwest 408 470 36,000  Level FlightAware
03:48PM -23.2720 164.8720 224° Southwest 408 470 36,000  Level FlightAware
03:49PM -23.3180 164.8240 224° Southwest 408 470 36,000  Level FlightAware
03:49PM -23.3610 164.7790 224° Southwest 408 470 36,000  Level FlightAware
03:50PM -23.4160 164.7200 225° Southwest 408 470 36,000  Level FlightAware
03:51PM -23.4570 164.6770 224° Southwest 408 470 36,000  Level FlightAware
03:52PM -23.5140 164.6170 224° Southwest 408 470 36,000  Level FlightAware
03:53PM -23.5980 164.5280 224° Southwest 408 470 36,000  Level FlightAware
03:54PM -23.6550 164.4690 223° Southwest 408 470 36,000  Level FlightAware
03:55PM -23.7240 164.3960 224° Southwest 408 470 36,000  Level FlightAware
03:55PM -23.7660 164.3520 224° Southwest 408 470 36,000  Level FlightAware
03:56PM -23.8210 164.2930 224° Southwest 408 470 36,000  Level FlightAware
03:57PM -23.8760 164.2350 224° Southwest 408 470 36,000  Level FlightAware
03:57PM -23.9040 164.2060 223° Southwest 408 470 36,000  Level FlightAware
04:00PM -24.0876 164.0023 225° Southwest  Level FlightAware Approximate
04:01PM -24.1692 163.9116 225° Southwest  Level FlightAware Approximate
04:02PM -24.2507 163.8208 225° Southwest  Level FlightAware Approximate
04:03PM -24.3321 163.7299 225° Southwest  Level FlightAware Approximate
04:03PM -24.6998 163.3103 224° Southwest 36,000  Level Aus ATC (Calculated)
04:04PM -24.4134 163.6388 226° Southwest  Level FlightAware Approximate
04:04PM -24.6998 163.3103 224° Southwest 36,000  Level Aus ATC (Calculated)
04:05PM -24.7789 163.2229 225° Southwest  Level FlightAware Approximate
04:06PM -24.8580 163.1353 225° Southwest  Level FlightAware Approximate
04:07PM -24.9370 163.0476 225° Southwest  Level FlightAware Approximate
04:07PM -24.9818 162.9959 224° Southwest 36,000  Level Aus ATC (Calculated)
04:08PM -24.9304 163.1058 63° Northeast  Level FlightAware Approximate
04:09PM -24.9818 162.9959 243° Southwest  Level FlightAware Approximate
04:09PM -25.1893 162.7631 224° Southwest 36,000  Level Aus ATC (Calculated)
04:10PM -25.1110 162.8518 46° Northeast  Level FlightAware Approximate
04:11PM -25.0327 162.9403 46° Northeast  Level FlightAware Approximate
04:12PM -25.0402 162.9324 225° Southwest  Level FlightAware Approximate
04:12PM -25.4804 162.4344 224° Southwest 36,000  Level Aus ATC (Calculated)
04:13PM -25.5588 162.3455 226° Southwest  Level FlightAware Approximate
04:14PM -25.6371 162.2565 226° Southwest  Level FlightAware Approximate
04:15PM -25.7153 162.1674 226° Southwest  Level FlightAware Approximate
04:16PM -25.7935 162.0782 226° Southwest  Level FlightAware Approximate
04:16PM -25.8750 161.9850 224° Southwest 36,000  Level Aus ATC (Calculated)
04:16PM -25.9496 161.8995 224° Southwest 36,000  Level Aus ATC (Calculated)
04:18PM -26.0342 161.8024 226° Southwest  Level FlightAware Approximate
04:19PM -26.1110 161.7140 226° Southwest  Level FlightAware Approximate
04:20PM -26.1877 161.6255 226° Southwest  Level FlightAware Approximate
04:21PM -26.2645 161.5369 226° Southwest  Level FlightAware Approximate
04:22PM -26.3411 161.4482 226° Southwest  Level FlightAware Approximate
04:22PM -26.4583 161.3122 223° Southwest 36,000  Level Aus ATC (Calculated)
04:24PM -26.5787 161.1720 226° Southwest  Level FlightAware Approximate
04:25PM -26.6555 161.0823 226° Southwest  Level FlightAware Approximate
04:26PM -26.7323 160.9925 226° Southwest  Level FlightAware Approximate
04:26PM -26.8540 160.8498 223° Southwest 36,000  Level Aus ATC (Calculated)
04:28PM -26.9688 160.7146 226° Southwest  Level FlightAware Approximate
04:29PM -27.0453 160.6244 226° Southwest  Level FlightAware Approximate
04:30PM -27.1218 160.5340 226° Southwest  Level FlightAware Approximate
04:31PM -27.1982 160.4434 226° Southwest  Level FlightAware Approximate
04:31PM -27.3376 160.2778 223° Southwest 36,000  Level Aus ATC (Calculated)
04:33PM -27.4392 160.1566 227° Southwest  Level FlightAware Approximate
04:33PM -27.5101 160.0718 222° Southwest 36,000  Level Aus ATC (Calculated)
04:34PM -27.5154 160.0655 227° Southwest  Level FlightAware Approximate
04:35PM -27.6116 159.9502 227° Southwest  Level FlightAware Approximate
04:35PM -27.6967 159.8479 222° Southwest 36,000  Level Aus ATC (Calculated)
04:37PM -27.7980 159.7260 227° Southwest  Level FlightAware Approximate
04:38PM -27.8738 159.6343 227° Southwest  Level FlightAware Approximate
04:39PM -27.9497 159.5425 227° Southwest  Level FlightAware Approximate
04:39PM -28.0456 159.4262 221° Southwest 36,000  Level Aus ATC (Calculated)
04:39PM -28.1499 159.2991 220° Southwest 36,000 60 Level Aus ATC (Calculated)
04:41PM -28.2334 159.1972 227° Southwest  Level FlightAware Approximate
04:42PM -28.3141 159.0985 227° Southwest  Level FlightAware Approximate
04:43PM -28.2334 159.1972 47° Northeast  Level FlightAware Approximate
04:44PM -28.3141 159.0985 227° Southwest  Level FlightAware Approximate
04:44PM -28.5804 158.7708 217° Southwest 38,000  Level Aus ATC (Calculated)
04:45PM -28.2334 159.1972 47° Northeast  Level FlightAware Approximate
04:46PM -28.4892 158.8833 47° Northeast  Level FlightAware Approximate
04:47PM -28.4087 158.9824 47° Northeast  Level FlightAware Approximate
04:48PM -28.3281 159.0813 47° Northeast  Level FlightAware Approximate
04:49PM -28.2474 159.1801 47° Northeast  Level FlightAware Approximate
04:49PM -29.0268 158.2153 201° Southwest 38,000  Level Aus ATC (Calculated)
04:50PM -28.3281 159.0813 227° Southwest  Level FlightAware Approximate
04:51PM -28.9361 158.3287 48° Northeast  Level FlightAware Approximate
04:52PM -28.8560 158.4287 48° Northeast  Level FlightAware Approximate
04:53PM -28.7758 158.5285 48° Northeast  Level FlightAware Approximate
04:54PM -28.6956 158.6281 47° Northeast  Level FlightAware Approximate
04:54PM -29.4709 157.6550 84° East 38,000  Level Aus ATC (Calculated)
04:56PM -29.3794 157.7711 48° Northeast  Level FlightAware Approximate
04:57PM -29.2997 157.8720 48° Northeast  Level FlightAware Approximate
04:58PM -29.3773 157.7690 227° Southwest  Level Estimated
04:59PM -29.4571 157.6682 228° Southwest  Level FlightAware Approximate
04:59PM -29.8726 157.1415 61° Northeast 38,000  Level Aus ATC (Calculated)
05:00PM -29.5367 157.5672 228° Southwest  Level FlightAware Approximate
05:01PM -29.9636 157.0242 228° Southwest  Level FlightAware Approximate
05:02PM -30.0427 156.9220 228° Southwest  Level FlightAware Approximate
05:03PM -30.1216 156.8197 228° Southwest  Level FlightAware Approximate
05:04PM -30.2005 156.7172 228° Southwest  Level FlightAware Approximate
05:04PM -29.4368 158.0333 228° Southwest 446 513 37,900  Level Aus ATC (RADAR)
05:04PM -29.4811 157.9855 223° Southwest 437 503 37,900  Level Aus ATC (RADAR)
05:05PM -29.5265 157.9368 223° Southwest 440 506 37,900  Level Aus ATC (RADAR)
05:05PM -29.5786 157.8799 223° Southwest 442 509 37,900  Level Aus ATC (RADAR)
05:07PM -29.6861 157.7598 224° Southwest 434 499 37,900  Level Aus ATC (RADAR)
05:07PM -29.7385 157.7027 223° Southwest 437 503 37,900  Level Aus ATC (RADAR)
05:08PM -29.7864 157.6528 222° Southwest 446 513 37,900  Level Aus ATC (RADAR)
05:08PM -29.8451 157.5886 223° Southwest 442 509 37,900  Level Aus ATC (RADAR)
05:09PM -29.8947 157.5333 224° Southwest 436 502 37,900  Level Aus ATC (RADAR)
05:09PM -29.9365 157.4866 224° Southwest 430 495 37,900  Level Aus ATC (RADAR)
05:10PM -29.9847 157.4319 225° Southwest 425 489 37,900  Level Aus ATC (RADAR)
05:11PM -30.0339 157.3767 224° Southwest 423 487 37,900  Level Aus ATC (RADAR)
05:12PM -30.1375 157.2591 224° Southwest 419 482 37,900  Level Aus ATC (RADAR)
05:12PM -30.1728 157.2196 224° Southwest 420 483 37,900  Level Aus ATC (RADAR)
05:13PM -30.2234 157.1631 224° Southwest 426 490 37,900 60 Level Aus ATC (RADAR)
05:13PM -30.2729 157.1078 224° Southwest 425 489 38,000 60 Climbing Aus ATC (RADAR)
05:14PM -30.3226 157.0519 224° Southwest 425 489 38,000  Level Aus ATC (RADAR)
05:15PM -30.3722 156.9959 224° Southwest 427 491 38,000 -120 Level Aus ATC (RADAR)
05:16PM -30.4566 156.9011 224° Southwest 423 487 37,900 -60 Descending Aus ATC (RADAR)
05:17PM -30.5610 156.7825 224° Southwest 419 482 37,900  Level Aus ATC (RADAR)
05:17PM -30.5959 156.7431 224° Southwest 419 482 37,900  Level Aus ATC (RADAR)
05:18PM -30.6380 156.6960 224° Southwest 420 483 37,900  Level Aus ATC (RADAR)
05:19PM -30.7083 156.6163 224° Southwest 423 487 37,900  Level Aus ATC (RADAR)
05:19PM -30.7504 156.5682 225° Southwest 424 488 37,900 60 Level Aus ATC (RADAR)
05:20PM -30.7996 156.5121 224° Southwest 425 489 38,000 60 Climbing Aus ATC (RADAR)
05:20PM -30.8490 156.4559 224° Southwest 426 490 38,000  Level Aus ATC (RADAR)
05:21PM -30.8913 156.4076 224° Southwest 426 490 38,000  Level Aus ATC (RADAR)
05:22PM -30.9687 156.3188 225° Southwest 427 491 38,000 -120 Level Aus ATC (RADAR)
05:22PM -31.0038 156.2784 225° Southwest 426 490 37,900  Descending Aus ATC (RADAR)
05:23PM -31.0533 156.2221 224° Southwest 426 490 38,000 60 Climbing Aus ATC (RADAR)
05:23PM -31.1095 156.1577 224° Southwest 426 490 38,000  Level Aus ATC (RADAR)
05:24PM -31.1587 156.1008 225° Southwest 426 490 38,000  Level Aus ATC (RADAR)
05:24PM -31.2008 156.0517 225° Southwest 427 491 38,000  Level Aus ATC (RADAR)
05:25PM -31.2717 155.9704 224° Southwest 429 494 38,000  Level Aus ATC (RADAR)
05:26PM -31.3210 155.9133 225° Southwest 428 493 38,000  Level Aus ATC (RADAR)
05:27PM -31.3844 155.8400 225° Southwest 428 493 38,000  Level Aus ATC (RADAR)
05:27PM -31.4334 155.7829 225° Southwest 428 493 38,000  Level Aus ATC (RADAR)
05:28PM -31.4825 155.7257 225° Southwest 428 493 38,000  Level Aus ATC (RADAR)
05:28PM -31.5386 155.6606 225° Southwest 427 491 38,000  Level Aus ATC (RADAR)
05:29PM -31.5806 155.6115 225° Southwest 427 491 38,000  Level Aus ATC (RADAR)
05:30PM -31.6297 155.5544 225° Southwest 427 491 38,000  Level Aus ATC (RADAR)
05:30PM -31.6930 155.4799 225° Southwest 430 495 38,000  Level Aus ATC (RADAR)
05:30PM -31.6973 155.4746 225° Southwest 432 497 38,000  Level FlightAware ADS-B (YPLB)
05:31PM -31.7305 155.4357 225° Southwest 434 499 38,000  Level FlightAware ADS-B (YPLB)
05:31PM -31.7771 155.3813 225° Southwest 435 501 38,000  Level FlightAware ADS-B (YPLB)
05:32PM -31.8708 155.2715 225° Southwest 436 502 38,000  Level Aus ATC (RADAR)
05:33PM -31.9104 155.2244 225° Southwest 437 503 38,000  Level FlightAware ADS-B (YPLB)
05:33PM -31.9562 155.1705 225° Southwest 438 504 38,000  Level FlightAware ADS-B (YPLB)
05:34PM -32.0000 155.1185 225° Southwest 439 505 38,000  Level FlightAware ADS-B (YPLB)
05:35PM -32.0705 155.0350 225° Southwest 439 505 38,000  Level Aus ATC (RADAR)
05:35PM -32.0838 155.0191 225° Southwest 441 507 38,000  Level FlightAware ADS-B (YPLB)
05:35PM -32.1283 154.9664 225° Southwest 443 510 38,000  Level FlightAware ADS-B (YPLB)
05:36PM -32.1751 154.9109 225° Southwest 445 512 38,000  Level FlightAware ADS-B (YPLB)
05:37PM -32.2692 154.7983 225° Southwest 448 516 38,000  Level FlightAware ADS-B (YPLB)
05:38PM -32.3242 154.7326 225° Southwest 449 517 38,000  Level FlightAware ADS-B (YPLB)
05:39PM -32.4104 154.6297 225° Southwest 450 518 38,000  Level FlightAware ADS-B (YPLB)
05:39PM -32.4543 154.5770 225° Southwest 451 519 38,000  Level FlightAware ADS-B (YPLB)
05:40PM -32.4982 154.5241 225° Southwest 452 520 38,000  Level FlightAware ADS-B (YPLB)
05:40PM -32.5710 154.4366 225° Southwest 454 522 38,000  Level FlightAware ADS-B (YPLB)
05:41PM -32.6142 154.3846 225° Southwest 454 522 38,000  Level FlightAware ADS-B (YPLB)
05:42PM -32.6759 154.3098 226° Southwest 456 525 38,000  Level FlightAware ADS-B (YPLB)
05:42PM -32.7338 154.2397 226° Southwest 456 525 38,000  Level FlightAware ADS-B (YPLB)
05:43PM -32.7765 154.1878 226° Southwest 457 526 38,000  Level FlightAware ADS-B (YPLB)
05:43PM -32.8209 154.1338 226° Southwest 459 528 38,000  Level FlightAware ADS-B (YPLB)
05:44PM -32.8689 154.0755 226° Southwest 459 528 38,000  Level FlightAware ADS-B (YPLB)
05:44PM -32.9113 154.0240 226° Southwest 460 529 38,000 60 Level FlightAware ADS-B (YPLB)
05:45PM -32.9561 153.9699 226° Southwest 460 529 38,100  Climbing Aus ATC (RADAR)
05:45PM -32.9714 153.9505 226° Southwest 461 531 38,000 -180 Descending FlightAware ADS-B (YPLB)
05:45PM -33.0175 153.8938 226° Southwest 460 529 38,000  Level FlightAware ADS-B (YPLB)
05:46PM -33.0620 153.8392 226° Southwest 461 531 38,000  Level FlightAware ADS-B (YPLB)
05:47PM -33.1180 153.7706 226° Southwest 460 529 38,000  Level FlightAware ADS-B (YPLB)
05:47PM -33.1635 153.7147 226° Southwest 460 529 38,000  Level FlightAware ADS-B (YPLB)
05:48PM -33.2087 153.6592 226° Southwest 460 529 38,000  Level FlightAware ADS-B (YPLB)
05:48PM -33.2529 153.6047 226° Southwest 461 531 38,000  Level FlightAware ADS-B (YPLB)
05:49PM -33.2884 153.5565 229° Southwest 458 527 38,000  Level FlightAware ADS-B (YPLB)
05:49PM -33.3275 153.4835 237° Southwest 457 526 38,000  Level FlightAware ADS-B (YPLB)
05:50PM -33.3615 153.4170 239° Southwest 458 527 38,000  Level FlightAware ADS-B (YPLB)
05:50PM -33.3942 153.3524 239° Southwest 458 527 38,000  Level FlightAware ADS-B (YPLB)
05:51PM -33.4381 153.2656 239° Southwest 458 527 38,000  Level FlightAware ADS-B (YPLB)
05:51PM -33.4814 153.1801 239° Southwest 457 526 38,000  Level FlightAware ADS-B (YPLB)
05:52PM -33.5154 153.1126 239° Southwest 456 525 38,000  Level FlightAware ADS-B (YPLB)
05:53PM -33.5574 153.0290 239° Southwest 455 524 38,000 -120 Level FlightAware ADS-B (YPLB)
05:53PM -33.5898 152.9642 239° Southwest 454 522 37,900 -1,440 Descending FlightAware ADS-B (YPLB)
05:54PM -33.6331 152.8778 239° Southwest 449 517 36,400 -2,940 Descending FlightAware ADS-B (YPLB)
05:54PM -33.6650 152.8134 239° Southwest 463 533 34,500 -3,960 Descending FlightAware ADS-B (YPLB)
05:55PM -33.7108 152.7225 239° Southwest 489 563 31,800 -3,360 Descending FlightAware ADS-B (YPLB)
05:55PM -33.7454 152.6538 239° Southwest 476 548 30,700 -2,820 Descending FlightAware ADS-B (YPLB)
05:56PM -33.7802 152.5841 239° Southwest 485 558 29,000 -3,240 Descending FlightAware ADS-B (YPLB)
05:56PM -33.8015 152.5411 239° Southwest 486 559 28,000 -2,880 Descending FlightAware ADS-B (YPLB)
05:57PM -33.8483 152.4461 239° Southwest 475 547 26,000 -3,900 Descending FlightAware ADS-B (YWST)
05:57PM -33.8671 152.4079 239° Southwest 470 541 24,100 -2,760 Descending FlightAware ADS-B (YWST)
05:58PM -33.8874 152.3667 239° Southwest 465 535 24,400 -780 Climbing Aus ATC (RADAR)
05:58PM -33.8671 152.4079 239° Southwest 463 533 23,700 -3,000 Descending FlightAware ADS-B (YWST)
05:58PM -33.9381 152.2637 239° Southwest 454 522 22,200 -2,820 Descending FlightAware ADS-B (YPLB)
05:59PM -33.9707 152.1974 239° Southwest 446 513 20,800 -2,640 Descending FlightAware ADS-B (YPLB)
05:59PM -33.9906 152.1567 239° Southwest 442 509 20,000 -2,340 Descending FlightAware ADS-B (YPLB)
06:00PM -34.0193 152.1006 239° Southwest 443 510 18,900 -2,700 Descending Aus ATC (RADAR)
06:00PM -34.0268 152.0700 239° Southwest 435 501 18,200 -3,120 Descending FlightAware ADS-B (YPLB)
06:00PM -34.0301 152.0241 265° West 434 499 17,300 -2,640 Descending FlightAware ADS-B (YPLB)
06:01PM -34.0229 151.9507 277° West 432 497 16,000 -2,520 Descending FlightAware ADS-B (YPLB)
06:01PM -34.0148 151.8715 277° West 419 482 14,600 -2,700 Descending Aus ATC (RADAR)
06:01PM -34.0132 151.8543 277° West 423 487 14,200 -2,760 Descending FlightAware ADS-B (YPLB)
06:02PM -34.0063 151.7908 277° West 409 471 13,000 -2,520 Descending Aus ATC (RADAR)
06:02PM -34.0041 151.7665 277° West 405 466 12,600 -2,580 Descending FlightAware ADS-B (YPLB)
06:02PM -33.9972 151.6978 277° West 396 456 11,300 -2,580 Descending FlightAware ADS-B (YPLB)
06:03PM -33.9906 151.6320 277° West 389 448 10,000 -2,640 Descending FlightAware ADS-B (YPLB)
06:03PM -33.9859 151.5876 277° West 384 442 9,100 -1,980 Descending FlightAware ADS-B (YPLB)
06:04PM -33.9818 151.5479 277° West 370 426 8,700 -960 Descending FlightAware ADS-B (YPLB)
06:04PM -33.9776 151.5080 277° West 356 410 8,500 -840 Descending FlightAware ADS-B (YPLB)
06:04PM -33.9745 151.4787 277° West 346 398 8,200 -960 Descending FlightAware ADS-B (YWST)
06:05PM -33.9706 151.4408 277° West 347 399 7,900 -1,020 Descending FlightAware ADS-B (YWST)
06:05PM -33.9674 151.4097 277° West 345 397 7,600 -900 Descending FlightAware ADS-B (YWST)
06:05PM -33.9633 151.3714 277° West 327 376 7,400 -720 Descending FlightAware ADS-B (YPLB)
06:05PM -33.9603 151.3432 277° West 314 361 7,200 -840 Descending FlightAware ADS-B (YWST)
06:06PM -33.9560 151.3102 279° West 301 346 6,900 -840 Descending FlightAware ADS-B (YWST)
06:06PM -33.9504 151.2956 295° West 299 344 6,800 -600 Descending FlightAware ADS-B (YWST)
06:06PM -33.9411 151.2831 312° West 297 342 6,700 -600 Descending FlightAware ADS-B (YWST)
06:06PM -33.9277 151.2738 330° Northwest 297 342 6,600 -600 Descending FlightAware ADS-B (YWST)
06:06PM -33.9104 151.2692 347° North 295 339 6,500 -420 Descending FlightAware ADS-B (YPLB)
06:07PM -33.8886 151.2653 351° North 294 338 6,400 -780 Descending FlightAware ADS-B (YWST)
06:07PM -33.8611 151.2604 352° North 291 335 6,000 -960 Descending FlightAware ADS-B (YWST)
06:07PM -33.8343 151.2555 351° North 288 331 5,800 -780 Descending FlightAware ADS-B (YWST)
06:08PM -33.8054 151.2500 351° North 289 333 5,500 -1,020 Descending FlightAware ADS-B (YPLB)
06:08PM -33.7906 151.2472 351° North 289 333 5,300 -840 Descending FlightAware ADS-B (YPLB)
06:08PM -33.7777 151.2447 351° North 290 334 5,200 -900 Descending FlightAware ADS-B (YPLB)
06:08PM -33.7626 151.2418 351° North 289 333 5,000 -960 Descending FlightAware ADS-B (YPLB)
06:08PM -33.7508 151.2395 351° North 284 327 4,900 -300 Descending FlightAware ADS-B (YPLB)
06:09PM -33.7380 151.2370 351° North 274 315 4,900  Level FlightAware ADS-B (YPLB)
06:09PM -33.7246 151.2339 349° North 264 304 4,900 -300 Level FlightAware ADS-B (YWST)
06:09PM -33.7140 151.2282 336° Northwest 259 298 4,800 -600 Descending FlightAware ADS-B (YWST)
06:09PM -33.7059 151.2197 319° Northwest 254 292 4,700 -720 Descending FlightAware ADS-B (YWST)
06:09PM -33.7004 151.2092 302° West 250 288 4,600 -960 Descending FlightAware ADS-B (YPLB)
06:09PM -33.6985 151.2023 288° West 242 278 4,500 -360 Descending FlightAware ADS-B (YSSY / SYD)
06:10PM -33.6984 151.1859 271° West 235 270 4,500 -360 Level FlightAware ADS-B (YWST)
06:10PM -33.7001 151.1797 252° West 230 265 4,400 -600 Descending FlightAware ADS-B (YSSY / SYD)
06:10PM -33.7018 151.1755 243° Southwest 222 255 4,400  Level FlightAware ADS-B (YWST)
06:10PM -33.7095 151.1657 226° Southwest 214 246 4,400 -300 Level FlightAware ADS-B (YWST)
06:10PM -33.7183 151.1609 204° Southwest 205 236 4,300 -840 Descending FlightAware ADS-B (YWST)
06:10PM -33.7352 151.1547 197° South 206 237 4,000 -1,080 Descending FlightAware ADS-B (YWST)
06:11PM -33.7565 151.1470 197° South 196 226 3,600 -1,140 Descending FlightAware ADS-B (YPLB)
06:11PM -33.7662 151.1448 191° South 191 220 3,400 -540 Descending FlightAware ADS-B (YWST)
06:11PM -33.7748 151.1449 179° South 187 215 3,400 -600 Level FlightAware ADS-B (YWST)
06:12PM -33.7924 151.1472 174° South 192 221 3,100 -900 Descending FlightAware ADS-B (YWST)
06:12PM -33.8081 151.1512 168° South 188 216 2,800 -1,200 Descending FlightAware ADS-B (YWST)
06:12PM -33.8132 151.1527 166° South 183 211 2,600 -1,080 Descending FlightAware ADS-B (YSBK / BWU)
06:12PM -33.8249 151.1560 167° South 173 199 2,500 -780 Descending FlightAware ADS-B (YPLB)
06:12PM -33.8395 151.1597 168° South 156 180 2,200 -960 Descending FlightAware ADS-B (YPLB)
06:13PM -33.8510 151.1627 168° South 149 171 1,900 -780 Descending FlightAware ADS-B (YWST)
06:13PM -33.8647 151.1663 168° South 146 168 1,700 -780 Descending FlightAware ADS-B (YWST)
06:13PM -33.8730 151.1684 168° South 136 157 1,400 -780 Descending FlightAware ADS-B (YWST)
06:14PM -33.8864 151.1719 168° South 126 145 1,300 -600 Descending FlightAware ADS-B (YPLB)
06:14PM -33.8952 151.1742 168° South 117 135 1,100 -720 Descending FlightAware ADS-B (YPLB)
06:14PM -33.9029 151.1762 168° South 122 140 900 -720 Descending FlightAware ADS-B (YWST)
06:15PM -33.9115 151.1785 168° South 121 139 700 -600 Descending FlightAware ADS-B (YWST)
06:15PM -33.9253 151.1819 168° South 121 139 500 -600 Descending FlightAware ADS-B (YWST)
06:15PM -33.9420 151.1860 169° South 115 132 200 -240 Descending FlightAware
06:16PM -33.9530 151.1890 167° South 118 136 -120 Descending FlightAware
06:16PM -33.9620 151.1920 165° South 78 90 60 Level FlightAware
06:17PM -33.9696 151.1918 165° South 37 43 100 120 Climbing Aus ATC (RADAR)